createdAt,value
2018-05-17T00:00:56.785Z,13.86
2018-05-17T00:01:57.060Z,13.83
2018-05-17T00:02:56.796Z,13.71
2018-05-17T00:03:57.067Z,13.77
2018-05-17T00:04:56.779Z,13.81
2018-05-17T00:05:56.806Z,13.83
2018-05-17T00:06:57.054Z,13.83
2018-05-17T00:07:57.054Z,13.85
2018-05-17T00:08:56.778Z,13.87
2018-05-17T00:09:57.060Z,13.92
2018-05-17T00:10:57.036Z,13.85
2018-05-17T00:11:56.784Z,13.9
2018-05-17T00:12:56.507Z,13.85
2018-05-17T00:13:56.502Z,13.9
2018-05-17T00:14:57.104Z,13.86
2018-05-17T00:15:56.567Z,13.78
2018-05-17T00:16:56.780Z,13.77
2018-05-17T00:17:57.020Z,13.81
2018-05-17T00:18:57.033Z,13.79
2018-05-17T00:19:57.022Z,13.75
2018-05-17T00:20:57.064Z,13.72
2018-05-17T00:21:56.759Z,13.67
2018-05-17T00:22:57.016Z,13.63
2018-05-17T00:23:57.033Z,13.63
2018-05-17T00:24:56.489Z,13.67
2018-05-17T00:25:57.042Z,13.67
2018-05-17T00:26:57.006Z,13.67
2018-05-17T00:27:57.005Z,13.65
2018-05-17T00:28:56.741Z,13.65
2018-05-17T00:29:57.008Z,13.71
2018-05-17T00:30:56.775Z,13.78
2018-05-17T00:31:56.740Z,13.77
2018-05-17T00:32:57.041Z,13.78
2018-05-17T00:33:56.990Z,13.7
2018-05-17T00:34:56.992Z,13.75
2018-05-17T00:35:57.046Z,13.78
2018-05-17T00:36:56.997Z,13.78
2018-05-17T00:37:56.724Z,13.87
2018-05-17T00:38:56.735Z,13.85
2018-05-17T00:39:56.733Z,13.85
2018-05-17T00:40:56.728Z,13.9
2018-05-17T00:41:56.722Z,13.85
2018-05-17T00:42:56.975Z,13.81
2018-05-17T00:43:56.718Z,13.79
2018-05-17T00:44:56.711Z,13.7
2018-05-17T00:45:56.712Z,13.83
2018-05-17T00:46:56.458Z,13.81
2018-05-17T00:47:56.972Z,13.86
2018-05-17T00:48:56.965Z,13.86
2018-05-17T00:49:56.958Z,13.83
2018-05-17T00:50:56.703Z,13.85
2018-05-17T00:51:56.957Z,13.87
2018-05-17T00:52:56.702Z,13.87
2018-05-17T00:53:56.702Z,13.96
2018-05-17T00:54:56.954Z,13.83
2018-05-17T00:55:56.993Z,13.87
2018-05-17T00:56:56.950Z,13.92
2018-05-17T00:57:56.694Z,13.97
2018-05-17T00:58:56.954Z,14
2018-05-17T00:59:56.948Z,13.95
2018-05-17T01:00:56.952Z,13.93
2018-05-17T01:01:56.952Z,14
2018-05-17T01:02:56.974Z,13.97
2018-05-17T01:03:56.441Z,14
2018-05-17T01:04:56.688Z,14.04
2018-05-17T01:05:56.683Z,13.97
2018-05-17T01:06:56.935Z,14
2018-05-17T01:07:56.934Z,13.92
2018-05-17T01:08:56.941Z,14
2018-05-17T01:09:56.934Z,13.96
2018-05-17T01:10:56.940Z,13.93
2018-05-17T01:11:56.686Z,13.89
2018-05-17T01:12:56.666Z,13.93
2018-05-17T01:13:56.663Z,13.9
2018-05-17T01:14:56.697Z,13.89
2018-05-17T01:15:56.704Z,13.9
2018-05-17T01:16:56.409Z,13.92
2018-05-17T01:17:56.677Z,13.9
2018-05-17T01:18:56.697Z,13.87
2018-05-17T01:19:56.925Z,13.92
2018-05-17T01:20:56.919Z,13.9
2018-05-17T01:21:56.404Z,13.93
2018-05-17T01:22:56.661Z,14
2018-05-17T01:23:56.652Z,14.08
2018-05-17T01:24:56.912Z,14.07
2018-05-17T01:25:56.669Z,13.99
2018-05-17T01:26:56.912Z,14.03
2018-05-17T01:27:56.642Z,13.92
2018-05-17T01:28:56.646Z,13.93
2018-05-17T01:29:56.909Z,13.83
2018-05-17T01:30:57.010Z,13.87
2018-05-17T01:31:56.907Z,13.78
2018-05-17T01:32:56.641Z,13.9
2018-05-17T01:33:56.910Z,13.9
2018-05-17T01:34:57.004Z,13.87
2018-05-17T01:35:56.641Z,13.85
2018-05-17T01:36:56.896Z,13.79
2018-05-17T01:37:56.628Z,13.7
2018-05-17T01:38:56.884Z,13.77
2018-05-17T01:39:56.884Z,13.72
2018-05-17T01:40:56.679Z,13.83
2018-05-17T01:41:56.616Z,13.86
2018-05-17T01:42:56.624Z,13.78
2018-05-17T01:43:56.359Z,13.89
2018-05-17T01:44:56.870Z,13.9
2018-05-17T01:45:56.670Z,13.9
2018-05-17T01:46:56.608Z,13.97
2018-05-17T01:47:56.607Z,13.95
2018-05-17T01:48:56.869Z,13.93
2018-05-17T01:49:56.613Z,13.95
2018-05-17T01:50:56.600Z,13.93
2018-05-17T01:51:56.883Z,13.92
2018-05-17T01:52:56.599Z,13.9
2018-05-17T01:53:56.965Z,14
2018-05-17T01:54:56.873Z,13.93
2018-05-17T01:55:58.525Z,13.93
2018-05-17T01:56:56.893Z,13.86
2018-05-17T01:57:56.602Z,13.95
2018-05-17T01:58:56.340Z,13.93
2018-05-17T01:59:56.597Z,13.95
2018-05-17T02:00:56.593Z,13.93
2018-05-17T02:01:56.326Z,13.92
2018-05-17T02:02:56.842Z,14
2018-05-17T02:03:56.342Z,13.95
2018-05-17T02:04:56.598Z,13.9
2018-05-17T02:05:56.885Z,13.93
2018-05-17T02:06:56.844Z,13.92
2018-05-17T02:07:56.840Z,13.95
2018-05-17T02:08:56.844Z,13.96
2018-05-17T02:09:56.592Z,13.97
2018-05-17T02:10:56.351Z,14.04
2018-05-17T02:11:56.584Z,14
2018-05-17T02:12:56.572Z,13.93
2018-05-17T02:13:56.326Z,14
2018-05-17T02:14:56.309Z,13.95
2018-05-17T02:15:56.928Z,13.95
2018-05-17T02:16:56.843Z,14.04
2018-05-17T02:17:56.609Z,13.97
2018-05-17T02:18:56.847Z,14.12
2018-05-17T02:19:56.608Z,13.97
2018-05-17T02:20:57.380Z,13.97
2018-05-17T02:21:56.833Z,13.97
2018-05-17T02:22:56.304Z,14.05
2018-05-17T02:23:56.562Z,14.04
2018-05-17T02:24:56.560Z,14.04
2018-05-17T02:25:56.559Z,14.14
2018-05-17T02:26:56.565Z,14.11
2018-05-17T02:27:56.812Z,14.07
2018-05-17T02:28:56.813Z,14.15
2018-05-17T02:29:56.285Z,14.17
2018-05-17T02:30:57.612Z,14.22
2018-05-17T02:31:56.819Z,14.14
2018-05-17T02:32:56.812Z,14.15
2018-05-17T02:33:56.562Z,14.23
2018-05-17T02:34:56.558Z,14.18
2018-05-17T02:35:56.546Z,14.23
2018-05-17T02:36:56.553Z,14.15
2018-05-17T02:37:56.548Z,14.15
2018-05-17T02:38:56.553Z,14.2
2018-05-17T02:39:56.531Z,14.22
2018-05-17T02:40:56.820Z,14.29
2018-05-17T02:41:56.793Z,14.33
2018-05-17T02:42:56.564Z,14.3
2018-05-17T02:43:56.551Z,14.18
2018-05-17T02:44:56.814Z,14.22
2018-05-17T02:45:56.812Z,14.25
2018-05-17T02:46:56.539Z,14.25
2018-05-17T02:47:56.796Z,14.3
2018-05-17T02:48:56.533Z,14.22
2018-05-17T02:49:56.912Z,14.25
2018-05-17T02:50:56.530Z,14.2
2018-05-17T02:51:56.533Z,14.23
2018-05-17T02:52:56.521Z,14.25
2018-05-17T02:53:56.790Z,14.25
2018-05-17T02:54:56.528Z,14.23
2018-05-17T02:55:56.532Z,14.23
2018-05-17T02:56:56.799Z,14.23
2018-05-17T02:57:56.516Z,14.26
2018-05-17T02:58:56.512Z,14.25
2018-05-17T02:59:56.786Z,14.23
2018-05-17T03:00:56.255Z,14.32
2018-05-17T03:01:56.771Z,14.32
2018-05-17T03:02:56.795Z,14.28
2018-05-17T03:03:56.249Z,14.23
2018-05-17T03:04:56.860Z,14.29
2018-05-17T03:05:56.522Z,14.26
2018-05-17T03:06:56.762Z,14.23
2018-05-17T03:07:56.244Z,14.25
2018-05-17T03:08:56.758Z,14.23
2018-05-17T03:09:56.509Z,14.18
2018-05-17T03:10:56.512Z,14.26
2018-05-17T03:11:56.757Z,14.18
2018-05-17T03:12:56.488Z,14.25
2018-05-17T03:13:56.255Z,14.22
2018-05-17T03:14:56.237Z,14.22
2018-05-17T03:15:56.219Z,14.22
2018-05-17T03:16:56.220Z,14.25
2018-05-17T03:17:56.527Z,14.23
2018-05-17T03:18:56.478Z,14.26
2018-05-17T03:19:56.225Z,14.17
2018-05-17T03:20:56.485Z,14.29
2018-05-17T03:21:56.471Z,14.26
2018-05-17T03:22:56.471Z,14.26
2018-05-17T03:23:56.209Z,14.2
2018-05-17T03:24:56.733Z,14.2
2018-05-17T03:25:56.508Z,14.2
2018-05-17T03:26:56.491Z,14.28
2018-05-17T03:27:56.719Z,14.28
2018-05-17T03:28:56.733Z,14.29
2018-05-17T03:29:56.202Z,14.32
2018-05-17T03:30:56.463Z,14.26
2018-05-17T03:31:56.727Z,14.25
2018-05-17T03:32:56.717Z,14.33
2018-05-17T03:33:56.462Z,14.36
2018-05-17T03:34:56.455Z,14.36
2018-05-17T03:35:56.524Z,14.2
2018-05-17T03:36:56.717Z,14.35
2018-05-17T03:37:56.192Z,14.23
2018-05-17T03:38:56.194Z,14.23
2018-05-17T03:39:56.703Z,14.28
2018-05-17T03:40:56.454Z,14.35
2018-05-17T03:41:56.460Z,14.23
2018-05-17T03:42:56.724Z,14.23
2018-05-17T03:43:56.465Z,14.35
2018-05-17T03:44:56.545Z,14.32
2018-05-17T03:45:56.462Z,14.36
2018-05-17T03:46:56.439Z,14.32
2018-05-17T03:47:56.434Z,14.32
2018-05-17T03:48:56.434Z,14.35
2018-05-17T03:49:56.431Z,14.3
2018-05-17T03:50:56.492Z,14.33
2018-05-17T03:51:56.429Z,14.4
2018-05-17T03:52:56.699Z,14.37
2018-05-17T03:53:56.427Z,14.37
2018-05-17T03:54:56.682Z,14.4
2018-05-17T03:55:56.567Z,14.36
2018-05-17T03:56:56.424Z,14.35
2018-05-17T03:57:56.420Z,14.36
2018-05-17T03:58:56.674Z,14.4
2018-05-17T03:59:56.443Z,14.33
2018-05-17T04:00:56.736Z,14.37
2018-05-17T04:01:56.671Z,14.36
2018-05-17T04:02:56.671Z,14.35
2018-05-17T04:03:56.158Z,14.4
2018-05-17T04:04:56.403Z,14.36
2018-05-17T04:05:56.663Z,14.41
2018-05-17T04:06:56.158Z,14.41
2018-05-17T04:07:56.665Z,14.47
2018-05-17T04:08:56.412Z,14.47
2018-05-17T04:09:56.412Z,14.5
2018-05-17T04:10:56.754Z,14.48
2018-05-17T04:11:56.663Z,14.36
2018-05-17T04:12:56.389Z,14.47
2018-05-17T04:13:56.783Z,14.51
2018-05-17T04:14:56.661Z,14.53
2018-05-17T04:15:56.665Z,14.43
2018-05-17T04:16:56.155Z,14.54
2018-05-17T04:17:56.392Z,14.54
2018-05-17T04:18:56.647Z,14.5
2018-05-17T04:19:56.652Z,14.5
2018-05-17T04:20:56.647Z,14.6
2018-05-17T04:21:56.653Z,14.58
2018-05-17T04:22:56.392Z,14.58
2018-05-17T04:23:56.398Z,14.62
2018-05-17T04:24:56.741Z,14.55
2018-05-17T04:25:56.385Z,14.51
2018-05-17T04:26:56.963Z,14.54
2018-05-17T04:27:56.647Z,14.58
2018-05-17T04:28:56.632Z,14.4
2018-05-17T04:29:56.369Z,14.41
2018-05-17T04:30:56.654Z,14.5
2018-05-17T04:31:56.624Z,14.41
2018-05-17T04:32:56.634Z,14.45
2018-05-17T04:33:56.372Z,14.44
2018-05-17T04:34:56.380Z,14.45
2018-05-17T04:35:56.366Z,14.44
2018-05-17T04:36:56.369Z,14.45
2018-05-17T04:37:56.372Z,14.35
2018-05-17T04:38:56.112Z,14.35
2018-05-17T04:39:56.632Z,14.37
2018-05-17T04:40:56.380Z,14.32
2018-05-17T04:41:56.672Z,14.32
2018-05-17T04:42:56.356Z,14.29
2018-05-17T04:43:56.630Z,14.35
2018-05-17T04:44:56.616Z,14.35
2018-05-17T04:45:56.628Z,14.3
2018-05-17T04:46:56.615Z,14.4
2018-05-17T04:47:56.614Z,14.37
2018-05-17T04:48:56.612Z,14.35
2018-05-17T04:49:56.102Z,14.4
2018-05-17T04:50:56.349Z,14.3
2018-05-17T04:51:56.609Z,14.37
2018-05-17T04:52:56.101Z,14.35
2018-05-17T04:53:56.349Z,14.29
2018-05-17T04:54:56.635Z,14.3
2018-05-17T04:55:56.438Z,14.35
2018-05-17T04:56:56.349Z,14.35
2018-05-17T04:57:56.376Z,14.35
2018-05-17T04:58:56.591Z,14.32
2018-05-17T04:59:56.595Z,14.33
2018-05-17T05:00:56.630Z,14.37
2018-05-17T05:01:56.639Z,14.36
2018-05-17T05:02:56.394Z,14.32
2018-05-17T05:03:56.365Z,14.35
2018-05-17T05:04:56.317Z,14.36
2018-05-17T05:05:56.590Z,14.33
2018-05-17T05:06:56.108Z,14.36
2018-05-17T05:07:56.580Z,14.37
2018-05-17T05:08:56.338Z,14.4
2018-05-17T05:09:56.337Z,14.35
2018-05-17T05:10:56.577Z,14.33
2018-05-17T05:11:56.595Z,14.4
2018-05-17T05:12:56.581Z,14.41
2018-05-17T05:13:56.319Z,14.33
2018-05-17T05:14:56.313Z,14.4
2018-05-17T05:15:56.341Z,14.36
2018-05-17T05:16:56.307Z,14.35
2018-05-17T05:17:56.578Z,14.43
2018-05-17T05:18:56.377Z,14.35
2018-05-17T05:19:56.565Z,14.37
2018-05-17T05:20:56.294Z,14.43
2018-05-17T05:21:56.571Z,14.47
2018-05-17T05:22:56.552Z,14.41
2018-05-17T05:23:56.298Z,14.5
2018-05-17T05:24:56.302Z,14.45
2018-05-17T05:25:56.303Z,14.51
2018-05-17T05:26:57.352Z,14.51
2018-05-17T05:27:56.299Z,14.5
2018-05-17T05:28:56.572Z,14.4
2018-05-17T05:29:56.576Z,14.45
2018-05-17T05:30:56.306Z,14.43
2018-05-17T05:31:56.558Z,14.44
2018-05-17T05:32:56.292Z,14.44
2018-05-17T05:33:56.290Z,14.45
2018-05-17T05:34:56.281Z,14.37
2018-05-17T05:35:56.353Z,14.47
2018-05-17T05:36:56.546Z,14.53
2018-05-17T05:37:56.557Z,14.48
2018-05-17T05:38:56.544Z,14.41
2018-05-17T05:39:56.534Z,14.44
2018-05-17T05:40:56.547Z,14.51
2018-05-17T05:41:56.590Z,14.47
2018-05-17T05:42:56.280Z,14.4
2018-05-17T05:43:56.281Z,14.45
2018-05-17T05:44:56.267Z,14.53
2018-05-17T05:45:56.017Z,14.55
2018-05-17T05:46:56.272Z,14.6
2018-05-17T05:47:56.533Z,14.58
2018-05-17T05:48:56.284Z,14.58
2018-05-17T05:49:56.532Z,14.6
2018-05-17T05:50:56.266Z,14.55
2018-05-17T05:51:56.530Z,14.62
2018-05-17T05:52:56.272Z,14.59
2018-05-17T05:53:56.536Z,14.65
2018-05-17T05:54:56.521Z,14.66
2018-05-17T05:55:56.521Z,14.62
2018-05-17T05:56:56.779Z,14.55
2018-05-17T05:57:56.009Z,14.55
2018-05-17T05:58:56.280Z,14.63
2018-05-17T05:59:56.272Z,14.79
2018-05-17T06:00:56.252Z,14.81
2018-05-17T06:01:56.262Z,15
2018-05-17T06:02:56.517Z,15.07
2018-05-17T06:03:56.255Z,15.14
2018-05-17T06:04:56.529Z,15.22
2018-05-17T06:05:56.249Z,15.27
2018-05-17T06:06:56.517Z,15.37
2018-05-17T06:07:56.520Z,15.54
2018-05-17T06:08:56.506Z,15.65
2018-05-17T06:09:56.518Z,15.68
2018-05-17T06:10:56.524Z,15.64
2018-05-17T06:11:56.241Z,15.67
2018-05-17T06:12:56.515Z,15.72
2018-05-17T06:22:43.659Z,15.82
2018-05-17T06:23:43.700Z,15.84
2018-05-17T06:24:43.860Z,15.94
2018-05-17T06:25:43.612Z,16.01
2018-05-17T06:26:43.600Z,15.94
2018-05-17T06:27:43.584Z,15.92
2018-05-17T06:28:43.591Z,15.88
2018-05-17T06:29:43.596Z,15.82
2018-05-17T06:30:43.627Z,15.75
2018-05-17T06:31:43.334Z,15.73
2018-05-17T06:32:43.328Z,15.75
2018-05-17T06:33:43.583Z,15.73
2018-05-17T06:34:43.848Z,15.64
2018-05-17T06:35:43.846Z,15.59
2018-05-17T06:36:43.322Z,15.62
2018-05-17T06:37:43.987Z,15.55
2018-05-17T06:38:43.617Z,15.47
2018-05-17T06:39:43.578Z,15.42
2018-05-17T06:40:43.582Z,15.37
2018-05-17T06:41:43.841Z,15.27
2018-05-17T06:42:43.858Z,15.19
2018-05-17T06:43:43.586Z,15.21
2018-05-17T06:44:43.590Z,15.19
2018-05-17T06:45:43.587Z,15.1
2018-05-17T06:46:43.833Z,15.15
2018-05-17T06:47:43.586Z,15.06
2018-05-17T06:48:43.847Z,15.03
2018-05-17T06:49:43.397Z,15.07
2018-05-17T06:50:43.850Z,14.97
2018-05-17T06:51:43.581Z,14.92
2018-05-17T06:52:43.836Z,14.97
2018-05-17T06:53:43.852Z,14.92
2018-05-17T06:54:43.583Z,14.94
2018-05-17T06:55:43.334Z,14.97
2018-05-17T06:56:43.872Z,14.96
2018-05-17T06:57:43.594Z,15.02
2018-05-17T06:58:43.310Z,15
2018-05-17T06:59:43.558Z,15.03
2018-05-17T07:00:44.294Z,15.02
2018-05-17T07:01:43.812Z,15
2018-05-17T07:02:43.813Z,15.02
2018-05-17T07:03:43.806Z,14.97
2018-05-17T07:04:43.587Z,15.1
2018-05-17T07:05:43.555Z,14.99
2018-05-17T07:06:43.556Z,15.02
2018-05-17T07:07:43.298Z,15.09
2018-05-17T07:08:43.318Z,14.99
2018-05-17T07:09:43.565Z,15.09
2018-05-17T07:10:43.561Z,15.02
2018-05-17T07:11:43.838Z,15
2018-05-17T07:12:43.830Z,15
2018-05-17T07:13:43.565Z,15.06
2018-05-17T07:14:43.317Z,15.06
2018-05-17T07:15:43.832Z,15.07
2018-05-17T07:16:43.826Z,15.14
2018-05-17T07:17:43.921Z,15.06
2018-05-17T07:18:45.540Z,15.03
2018-05-17T07:19:43.832Z,14.96
2018-05-17T07:20:43.822Z,14.97
2018-05-17T07:21:43.549Z,14.96
2018-05-17T07:22:43.806Z,14.99
2018-05-17T07:23:43.864Z,14.96
2018-05-17T07:24:43.296Z,14.97
2018-05-17T07:25:43.547Z,15.04
2018-05-17T07:26:43.814Z,15
2018-05-17T07:27:44.633Z,14.99
2018-05-17T07:28:43.553Z,15
2018-05-17T07:29:43.814Z,15.02
2018-05-17T07:30:43.538Z,15.02
2018-05-17T07:31:43.819Z,14.96
2018-05-17T07:32:43.805Z,14.96
2018-05-17T07:33:43.545Z,14.94
2018-05-17T07:34:43.595Z,14.99
2018-05-17T07:35:43.541Z,14.82
2018-05-17T07:36:43.276Z,14.91
2018-05-17T07:37:43.801Z,14.85
2018-05-17T07:38:43.524Z,14.84
2018-05-17T07:39:43.531Z,14.78
2018-05-17T07:40:43.794Z,14.7
2018-05-17T07:41:43.524Z,14.78
2018-05-17T07:42:43.787Z,14.73
2018-05-17T07:43:43.546Z,14.63
2018-05-17T07:44:43.529Z,14.68
2018-05-17T07:45:43.791Z,14.62
2018-05-17T07:46:43.632Z,14.72
2018-05-17T07:47:43.529Z,14.68
2018-05-17T07:48:43.777Z,14.62
2018-05-17T07:49:43.782Z,14.59
2018-05-17T07:50:43.553Z,14.55
2018-05-17T07:51:43.815Z,14.51
2018-05-17T07:52:43.527Z,14.53
2018-05-17T07:53:43.804Z,14.53
2018-05-17T07:54:43.799Z,14.54
2018-05-17T07:55:44.096Z,14.5
2018-05-17T07:56:43.523Z,14.54
2018-05-17T07:57:43.784Z,14.37
2018-05-17T07:58:43.796Z,14.41
2018-05-17T07:59:43.287Z,14.43
2018-05-17T08:00:43.766Z,14.5
2018-05-17T08:01:43.949Z,14.51
2018-05-17T08:02:43.506Z,14.43
2018-05-17T08:03:43.788Z,14.53
2018-05-17T08:04:43.510Z,14.59
2018-05-17T08:05:43.550Z,14.6
2018-05-17T08:06:43.514Z,14.51
2018-05-17T08:07:43.768Z,14.58
2018-05-17T08:08:43.755Z,14.59
2018-05-17T08:09:43.752Z,14.63
2018-05-17T08:10:43.231Z,14.62
2018-05-17T08:11:43.771Z,14.58
2018-05-17T08:12:43.499Z,14.63
2018-05-17T08:13:43.500Z,14.5
2018-05-17T08:14:43.502Z,14.53
2018-05-17T08:15:43.227Z,14.44
2018-05-17T08:16:43.499Z,14.41
2018-05-17T08:17:43.484Z,14.47
2018-05-17T08:18:43.239Z,14.43
2018-05-17T08:19:43.762Z,14.47
2018-05-17T08:20:43.757Z,14.36
2018-05-17T08:21:43.739Z,14.37
2018-05-17T08:22:43.473Z,14.33
2018-05-17T08:23:43.480Z,14.41
2018-05-17T08:24:43.737Z,14.33
2018-05-17T08:25:43.216Z,14.33
2018-05-17T08:26:43.481Z,14.33
2018-05-17T08:27:45.080Z,14.33
2018-05-17T08:28:43.227Z,14.35
2018-05-17T08:29:43.468Z,14.35
2018-05-17T08:30:43.731Z,14.35
2018-05-17T08:31:43.757Z,14.41
2018-05-17T08:32:43.463Z,14.3
2018-05-17T08:33:43.728Z,14.32
2018-05-17T08:34:43.231Z,14.35
2018-05-17T08:35:43.467Z,14.37
2018-05-17T08:36:43.775Z,14.35
2018-05-17T08:37:43.472Z,14.22
2018-05-17T08:38:43.197Z,14.33
2018-05-17T08:39:43.460Z,14.26
2018-05-17T08:40:43.745Z,14.25
2018-05-17T08:41:43.461Z,14.3
2018-05-17T08:42:43.524Z,14.23
2018-05-17T08:43:43.713Z,14.23
2018-05-17T08:44:43.456Z,14.23
2018-05-17T08:45:43.580Z,14.23
2018-05-17T08:46:43.705Z,14.23
2018-05-17T08:47:43.716Z,14.22
2018-05-17T08:48:43.442Z,14.23
2018-05-17T08:49:43.712Z,14.26
2018-05-17T08:50:43.449Z,14.26
2018-05-17T08:51:43.440Z,14.17
2018-05-17T08:52:43.701Z,14.23
2018-05-17T08:53:43.451Z,14.2
2018-05-17T08:54:43.699Z,14.18
2018-05-17T08:55:43.440Z,14.2
2018-05-17T08:56:43.428Z,14.23
2018-05-17T08:57:43.424Z,14.23
2018-05-17T08:58:46.122Z,14.17
2018-05-17T08:59:43.556Z,14.15
2018-05-17T09:00:43.425Z,14.23
2018-05-17T09:01:43.688Z,14.26
2018-05-17T09:02:43.423Z,14.28
2018-05-17T09:03:43.699Z,14.35
2018-05-17T09:04:43.692Z,14.36
2018-05-17T09:05:43.682Z,14.2
2018-05-17T09:06:43.684Z,14.32
2018-05-17T09:07:43.681Z,14.32
2018-05-17T09:08:43.165Z,14.35
2018-05-17T09:09:43.423Z,14.3
2018-05-17T09:10:43.680Z,14.35
2018-05-17T09:11:43.673Z,14.35
2018-05-17T09:12:43.406Z,14.36
2018-05-17T09:13:43.584Z,14.36
2018-05-17T09:14:43.419Z,14.41
2018-05-17T09:15:43.663Z,14.35
2018-05-17T09:16:43.659Z,14.4
2018-05-17T09:17:43.463Z,14.35
2018-05-17T09:18:43.140Z,14.48
2018-05-17T09:19:43.395Z,14.45
2018-05-17T09:20:43.404Z,14.48
2018-05-17T09:21:43.152Z,14.47
2018-05-17T09:22:43.652Z,14.55
2018-05-17T09:23:43.393Z,14.59
2018-05-17T09:24:43.397Z,14.68
2018-05-17T09:25:43.469Z,14.68
2018-05-17T09:26:43.673Z,14.62
2018-05-17T09:27:43.655Z,14.79
2018-05-17T09:28:48.448Z,14.82
2018-05-17T09:29:43.664Z,14.84
2018-05-17T09:30:43.650Z,14.84
2018-05-17T09:31:43.397Z,14.92
2018-05-17T09:32:43.395Z,14.99
2018-05-17T09:33:43.137Z,14.99
2018-05-17T09:34:43.391Z,15.06
2018-05-17T09:35:43.818Z,15.11
2018-05-17T09:36:43.385Z,15.18
2018-05-17T09:37:43.656Z,15.21
2018-05-17T09:38:43.653Z,15.31
2018-05-17T09:39:43.395Z,15.33
2018-05-17T09:40:43.379Z,15.4
2018-05-17T09:41:43.649Z,15.42
2018-05-17T09:42:43.638Z,15.4
2018-05-17T09:43:43.380Z,15.43
2018-05-17T09:44:43.695Z,15.39
2018-05-17T09:45:43.655Z,15.51
2018-05-17T09:46:43.388Z,15.44
2018-05-17T09:47:43.567Z,15.44
2018-05-17T09:48:43.648Z,15.43
2018-05-17T09:49:43.384Z,15.39
2018-05-17T09:50:43.382Z,15.47
2018-05-17T09:51:43.649Z,15.52
2018-05-17T09:52:43.394Z,15.39
2018-05-17T09:53:43.660Z,15.44
2018-05-17T09:54:43.132Z,15.54
2018-05-17T09:55:43.654Z,15.43
2018-05-17T09:56:43.387Z,15.46
2018-05-17T09:57:43.652Z,15.35
2018-05-17T09:58:43.654Z,15.28
2018-05-17T09:59:43.929Z,15.25
2018-05-17T10:00:43.403Z,15.35
2018-05-17T10:01:43.405Z,15.21
2018-05-17T10:02:43.376Z,15.22
2018-05-17T10:03:43.642Z,15.39
2018-05-17T10:04:43.642Z,15.42
2018-05-17T10:05:43.375Z,15.52
2018-05-17T10:06:43.639Z,15.59
2018-05-17T10:07:43.649Z,15.55
2018-05-17T10:08:43.653Z,15.61
2018-05-17T10:09:43.651Z,15.61
2018-05-17T10:10:43.383Z,15.52
2018-05-17T10:11:43.321Z,15.49
2018-05-17T10:12:43.576Z,15.52
2018-05-17T10:13:43.569Z,15.61
2018-05-17T10:14:43.780Z,15.62
2018-05-17T10:15:43.323Z,15.77
2018-05-17T10:16:43.320Z,15.8
2018-05-17T10:17:43.650Z,15.8
2018-05-17T10:18:43.594Z,15.82
2018-05-17T10:19:43.070Z,15.9
2018-05-17T10:20:43.568Z,16.01
2018-05-17T10:21:43.590Z,16.08
2018-05-17T10:22:43.569Z,16.29
2018-05-17T10:53:08.261Z,16.35
2018-05-17T10:54:08.010Z,16.33
2018-05-17T10:55:08.314Z,16.38
2018-05-17T10:56:07.997Z,16.38
2018-05-17T10:57:07.992Z,16.36
2018-05-17T10:58:08.002Z,16.29
2018-05-17T10:59:08.255Z,16.21
2018-05-17T11:00:08.346Z,16.2
2018-05-17T11:01:07.989Z,16.02
2018-05-17T11:02:07.982Z,16.01
2018-05-17T11:03:08.248Z,16.05
2018-05-17T11:04:08.238Z,16.08
2018-05-17T11:05:08.475Z,15.98
2018-05-17T11:06:07.999Z,15.95
2018-05-17T11:07:07.981Z,15.95
2018-05-17T11:08:08.833Z,15.94
2018-05-17T11:09:08.231Z,15.95
2018-05-17T11:10:07.992Z,15.92
2018-05-17T11:11:08.234Z,15.9
2018-05-17T11:12:08.302Z,15.84
2018-05-17T11:13:07.707Z,15.75
2018-05-17T11:14:07.972Z,15.73
2018-05-17T11:15:08.074Z,15.73
2018-05-17T11:16:07.985Z,15.72
2018-05-17T11:17:07.711Z,15.79
2018-05-17T11:18:07.973Z,15.73
2018-05-17T11:19:07.966Z,15.77
2018-05-17T11:20:07.969Z,15.72
2018-05-17T11:21:07.984Z,15.76
2018-05-17T11:22:07.992Z,15.72
2018-05-17T11:23:08.391Z,15.83
2018-05-17T11:24:08.231Z,15.88
2018-05-17T11:25:08.104Z,15.9
2018-05-17T11:26:07.973Z,15.94
2018-05-17T11:27:07.972Z,15.97
2018-05-17T11:28:07.969Z,15.91
2018-05-17T11:29:07.962Z,15.86
2018-05-17T11:30:08.062Z,15.79
2018-05-17T11:31:07.718Z,15.68
2018-05-17T11:32:08.243Z,15.64
2018-05-17T11:33:08.402Z,15.57
2018-05-17T11:34:08.128Z,15.42
2018-05-17T11:35:07.997Z,15.54
2018-05-17T11:36:07.978Z,15.59
2018-05-17T11:37:08.280Z,15.55
2018-05-17T11:38:08.280Z,15.64
2018-05-17T11:39:08.230Z,15.65
2018-05-17T11:40:07.993Z,15.68
2018-05-17T11:41:07.775Z,15.75
2018-05-17T11:42:07.967Z,15.8
2018-05-17T11:43:08.228Z,15.83
2018-05-17T11:44:08.376Z,15.83
2018-05-17T11:45:08.004Z,15.91
2018-05-17T11:46:08.297Z,15.95
2018-05-17T11:47:07.960Z,15.86
2018-05-17T11:48:08.063Z,15.82
2018-05-17T11:49:07.988Z,15.86
2018-05-17T11:50:08.157Z,15.86
2018-05-17T11:51:08.220Z,15.86
2018-05-17T11:52:08.222Z,15.84
2018-05-17T11:53:07.963Z,15.9
2018-05-17T11:54:08.224Z,15.94
2018-05-17T11:55:08.425Z,15.94
2018-05-17T11:56:07.976Z,15.91
2018-05-17T11:57:07.981Z,15.98
2018-05-17T11:58:07.982Z,16.04
2018-05-17T11:59:08.236Z,16.05
2018-05-17T12:00:08.398Z,16.02
2018-05-17T12:01:07.754Z,16.02
2018-05-17T12:02:07.965Z,16.02
2018-05-17T12:03:08.008Z,16.04
2018-05-17T12:04:07.966Z,15.98
2018-05-17T12:05:08.042Z,16
2018-05-17T12:06:07.967Z,15.95
2018-05-17T12:07:07.969Z,15.92
2018-05-17T12:08:08.496Z,15.88
2018-05-17T12:09:08.230Z,15.9
2018-05-17T12:10:08.388Z,15.92
2018-05-17T12:11:08.252Z,16.08
2018-05-17T12:12:07.978Z,16.01
2018-05-17T12:13:08.326Z,16.1
2018-05-17T12:14:08.132Z,16.05
2018-05-17T12:15:07.751Z,16.05
2018-05-17T12:16:07.969Z,16.13
2018-05-17T12:17:07.969Z,16.15
2018-05-17T12:18:08.232Z,16.21
2018-05-17T12:19:07.966Z,16.23
2018-05-17T12:20:07.789Z,16.31
2018-05-17T12:21:07.965Z,16.32
2018-05-17T12:22:08.247Z,16.33
2018-05-17T12:23:08.153Z,16.36
2018-05-17T12:24:07.715Z,16.51
2018-05-17T12:25:08.032Z,16.61
2018-05-17T12:26:07.974Z,16.65
2018-05-17T12:27:08.230Z,16.66
2018-05-17T12:28:08.307Z,16.71
2018-05-17T12:29:07.973Z,16.87
2018-05-17T12:30:07.992Z,16.83
2018-05-17T12:31:07.713Z,17.02
2018-05-17T12:32:08.112Z,17.09
2018-05-17T12:33:07.979Z,17.16
2018-05-17T12:34:07.751Z,17.27
2018-05-17T12:35:08.329Z,17.3
2018-05-17T12:36:08.353Z,17.38
2018-05-17T12:37:08.102Z,17.29
2018-05-17T12:38:08.248Z,17.41
2018-05-17T12:39:08.244Z,17.38
2018-05-17T12:40:07.991Z,17.34
2018-05-17T12:41:07.990Z,17.38
2018-05-17T12:42:07.726Z,17.3
2018-05-17T12:43:08.245Z,17.12
2018-05-17T12:44:08.027Z,17.11
2018-05-17T12:45:08.132Z,17.11
2018-05-17T12:46:08.011Z,17.01
2018-05-17T12:47:08.268Z,17.05
2018-05-17T12:48:09.058Z,17.11
2018-05-17T12:49:08.308Z,17.16
2018-05-17T12:50:08.367Z,17.33
2018-05-17T12:51:08.255Z,17.31
2018-05-17T12:52:08.262Z,17.39
2018-05-17T12:53:07.749Z,17.39
2018-05-17T12:54:08.262Z,17.33
2018-05-17T12:55:08.400Z,17.38
2018-05-17T12:56:08.038Z,17.46
2018-05-17T12:57:08.004Z,17.65
2018-05-17T12:58:08.265Z,17.68
2018-05-17T12:59:08.058Z,17.63
2018-05-17T13:00:08.075Z,17.64
2018-05-17T13:01:08.006Z,17.74
2018-05-17T13:02:07.748Z,17.86
2018-05-17T13:03:08.274Z,17.94
2018-05-17T13:04:08.014Z,18.01
2018-05-17T13:05:08.126Z,18.11
2018-05-17T13:06:08.278Z,18.25
2018-05-17T13:07:08.164Z,18.19
2018-05-17T13:08:08.294Z,18.15
2018-05-17T13:09:07.778Z,18.1
2018-05-17T13:10:08.456Z,18.05
2018-05-17T13:11:07.783Z,17.74
2018-05-17T13:12:08.381Z,17.63
2018-05-17T13:13:07.883Z,17.39
2018-05-17T13:14:08.328Z,17.38
2018-05-17T13:15:07.859Z,17.22
2018-05-17T13:16:08.049Z,17.26
2018-05-17T13:17:08.313Z,17.27
2018-05-17T13:18:08.030Z,17.26
2018-05-17T13:19:08.325Z,17.3
2018-05-17T13:20:08.331Z,17.36
2018-05-17T13:21:08.090Z,17.34
2018-05-17T13:22:07.793Z,17.31
2018-05-17T13:23:07.806Z,17.36
2018-05-17T13:24:08.060Z,17.45
2018-05-17T13:25:08.169Z,17.49
2018-05-17T13:26:08.053Z,17.49
2018-05-17T13:27:07.798Z,17.36
2018-05-17T13:28:08.079Z,17.51
2018-05-17T13:29:08.075Z,17.51
2018-05-17T13:30:07.885Z,17.51
2018-05-17T13:31:08.329Z,17.49
2018-05-17T13:32:07.793Z,17.48
2018-05-17T13:33:08.072Z,17.51
2018-05-17T13:34:08.080Z,17.48
2018-05-17T13:35:08.694Z,17.45